Gaurama, Brazil
Current Conditions -  °F | °C
As of 1:00 PM on Friday 28 Nov 2014 (Local Time) from SBCH Reporting Station
Few Clouds Few Clouds  
Wind Chill: 82°   Ceiling: Unl
Heat Index: 84°   Visibility: 6mi
Dew Point: 64°   Wind: 8mph
Humidity: 54%   Direction: 50°NE
Pressure: 30"   Gusts: NA
Location:  27.58°S, 52.09°W
Report Text: SBCH 281500Z 05007KT 9999 FEW023 28/18 Q1016
Loading
Personal Weather Stations






























Interactive Weather Map New forecast layout! Learn more

10-Day Weather Forecast

Advertisements
Track Severe Weather on mobile